Aérodrome :
LOGIN :

S'inscrire | Disclaimer

   EN    FR    IT 

 










Légende :    VFR   VFR Marginal   IFR   IFR Intensif   IFR Très Intensif
Visi : 
Plafond : 
>= 8 km
>= 3000ft
5 à 8 km
1000 à 3000 ft
1500m à 5 km
500 à 1000 ft
800 à 1500m
200 à 500 ft
< 800m
< 200 ft
Symboles :   Orages  Brouillard  Fortes neiges  Fortes précipitations  Vent > 20 kt
SIGMETs :   Divers  Orages  Givrage  Turbulence  Onde Orograph.  Cendres Volcan.






- Altitude de l'aérodrome : 26 ft


ETNT - Wittmundhaven AB

DERNIER METAR :
  • 221020Z 32006KT 9999 FEW009 BKN012 07/05 Q1034 GRN BLU+ TEMPO GRN

METARs EXPIRÉS :
  • 220920Z 31005KT 9999 FEW003 BKN012 07/06 Q1034 GRN GRN BECMG BLU+
  • 220820Z 32005KT 9999 SCT004 BKN011 07/06 Q1034 REDZ GRN GRN BECMG BLU+
  • 220756Z 33008KT 8000 SCT004 BKN010 07/06 Q1034 REDZ GRN GRN BECMG BLU+
  • 220737Z 31007KT 3000 DZ SCT004 BKN008 07/06 Q1034 YLO YLO BECMG BLU+

TAF TAF ETNT
Valide du 22 à 09h jusqu'au 22 à 18h UTC


220845Z 2209/2218 30008KT 9999 NSW FEW006 SCT012
TEMPO 2209/2218 32010KT 6000 NSW SCT005 BKN010 BY ETGL



MET'MAP, la Météo Aéronautique d'un coup d'oeil ! - Copyright ORBIFLY Décembre 2007 - Disclaimer

ORBIFLY MET'MAP TEAM :

Programmation & Développement : Alexandra Zaïnal
Sur une idée originale de : Baudouin d'Aumeries
Assistance à la programmation : Marc-Olivier Méhu
Soutien technique & logistique : Manuel Goepfert

Contact : metmap@orbifly.com




SOURCES & CREDITS :

   NOAA